createdAt,value
2023-01-02T00:01:17.396Z,3.60
2023-01-02T00:03:45.613Z,3.53
2023-01-02T00:06:13.718Z,4.07
2023-01-02T00:08:43.088Z,3.73
2023-01-02T00:11:11.106Z,3.90
2023-01-02T00:13:39.087Z,3.60
2023-01-02T00:16:09.771Z,3.80
2023-01-02T00:18:37.824Z,3.57
2023-01-02T00:21:06.793Z,3.80
2023-01-02T00:23:35.286Z,3.73
2023-01-02T00:26:04.764Z,3.73
2023-01-02T00:28:33.586Z,4.00
2023-01-02T00:31:07.530Z,3.67
2023-01-02T00:33:36.243Z,3.63
2023-01-02T00:36:06.866Z,3.73
2023-01-02T00:38:38.196Z,3.87
2023-01-02T00:41:08.462Z,3.80
2023-01-02T00:43:36.885Z,3.30
2023-01-02T00:46:10.873Z,3.47
2023-01-02T00:48:39.418Z,3.23
2023-01-02T00:51:07.539Z,3.43
2023-01-02T00:53:36.322Z,3.60
2023-01-02T00:56:04.545Z,3.77
2023-01-02T00:58:34.064Z,3.43
2023-01-02T01:01:02.083Z,3.83
2023-01-02T01:03:30.680Z,3.97
2023-01-02T01:05:58.792Z,3.93
2023-01-02T01:08:26.797Z,4.47
2023-01-02T01:10:54.805Z,4.17
2023-01-02T01:13:22.806Z,4.30
2023-01-02T01:15:52.191Z,4.10
2023-01-02T01:18:20.209Z,4.20
2023-01-02T01:20:48.208Z,4.37
2023-01-02T01:23:16.212Z,4.40
2023-01-02T01:25:44.187Z,4.20
2023-01-02T01:28:12.213Z,4.03
2023-01-02T01:30:40.174Z,4.40
2023-01-02T01:33:09.529Z,4.40
2023-01-02T01:35:37.539Z,4.63
2023-01-02T01:38:05.568Z,4.43
2023-01-02T01:40:39.240Z,4.73
2023-01-02T01:43:13.792Z,4.27
2023-01-02T01:45:43.909Z,4.40
2023-01-02T01:48:17.185Z,4.07
2023-01-02T01:50:45.926Z,4.30
2023-01-02T01:53:18.125Z,4.20
2023-01-02T01:55:50.044Z,4.60
2023-01-02T01:58:21.968Z,4.57
2023-01-02T02:00:50.657Z,4.20
2023-01-02T02:03:23.237Z,4.67
2023-01-02T02:05:51.868Z,4.73
2023-01-02T02:08:24.671Z,5.27
2023-01-02T02:10:53.995Z,4.50
2023-01-02T02:13:22.646Z,5.13
2023-01-02T02:16:04.107Z,5.00
2023-01-02T02:18:51.975Z,4.70
2023-01-02T02:21:37.904Z,4.37
2023-01-02T02:24:37.380Z,5.40
2023-01-02T02:27:28.178Z,4.93
2023-01-02T02:30:11.042Z,4.97
2023-01-02T02:32:55.472Z,5.27
2023-01-02T02:35:35.833Z,4.90
2023-01-02T02:38:08.434Z,5.47
2023-01-02T02:40:49.964Z,5.17
2023-01-02T02:43:25.945Z,5.03
2023-01-02T02:46:02.470Z,5.20
2023-01-02T02:48:46.188Z,5.33
2023-01-02T02:51:20.664Z,5.13
2023-01-02T02:53:55.543Z,4.97
2023-01-02T02:56:26.047Z,5.00
2023-01-02T02:58:55.414Z,5.40
2023-01-02T03:01:30.483Z,5.37
2023-01-02T03:03:59.399Z,4.97
2023-01-02T03:06:45.699Z,5.13
2023-01-02T03:09:24.038Z,5.87
2023-01-02T03:12:01.798Z,5.90
2023-01-02T03:14:39.918Z,5.77
2023-01-02T03:17:17.399Z,5.20
2023-01-02T03:19:51.190Z,4.90
2023-01-02T03:22:23.090Z,5.30
2023-01-02T03:24:55.164Z,4.70
2023-01-02T03:27:26.055Z,5.50
2023-01-02T03:30:00.262Z,5.87
2023-01-02T03:32:32.336Z,5.60
2023-01-02T03:35:02.446Z,5.20
2023-01-02T03:37:35.195Z,5.13
2023-01-02T03:40:08.196Z,5.53
2023-01-02T03:42:40.973Z,6.03
2023-01-02T03:45:14.739Z,4.80
2023-01-02T03:47:49.581Z,5.90
2023-01-02T03:50:22.771Z,5.90
2023-01-02T03:52:50.840Z,5.57
2023-01-02T03:55:19.119Z,5.83
2023-01-02T03:57:57.828Z,5.43
2023-01-02T04:00:35.549Z,5.93
2023-01-02T04:03:10.134Z,5.60
2023-01-02T04:05:43.544Z,5.80
2023-01-02T04:08:18.388Z,5.27
2023-01-02T04:10:51.852Z,5.77
2023-01-02T04:13:27.263Z,5.53
2023-01-02T04:15:56.050Z,5.37
2023-01-02T04:18:27.959Z,5.57
2023-01-02T04:20:59.719Z,6.23
2023-01-02T04:23:31.510Z,4.90
2023-01-02T04:26:05.708Z,5.93
2023-01-02T04:28:35.493Z,5.57
2023-01-02T04:31:08.599Z,6.10
2023-01-02T04:33:42.972Z,6.20
2023-01-02T04:36:12.095Z,5.33
2023-01-02T04:38:40.199Z,5.20
2023-01-02T04:41:08.432Z,6.30
2023-01-02T04:43:36.443Z,5.80
2023-01-02T04:46:04.551Z,5.67
2023-01-02T04:48:32.608Z,6.20
2023-01-02T04:51:02.053Z,5.57
2023-01-02T04:53:30.079Z,5.90
2023-01-02T04:55:58.660Z,6.57
2023-01-02T04:58:27.991Z,5.60
2023-01-02T05:00:56.188Z,5.90
2023-01-02T05:03:24.223Z,5.93
2023-01-02T05:05:52.275Z,5.93
2023-01-02T05:08:21.640Z,4.90
2023-01-02T05:10:49.636Z,5.40
2023-01-02T05:13:17.897Z,5.80
2023-01-02T05:15:45.955Z,5.43
2023-01-02T05:18:13.965Z,6.07
2023-01-02T05:20:41.963Z,6.03
2023-01-02T05:23:30.039Z,6.07
2023-01-02T05:25:59.405Z,7.03
2023-01-02T05:28:27.440Z,11.73
2023-01-02T05:30:55.845Z,15.37
2023-01-02T05:33:23.880Z,17.33
2023-01-02T05:35:51.872Z,10.07
2023-01-02T05:38:19.866Z,8.43
2023-01-02T05:40:47.852Z,6.63
2023-01-02T05:43:17.190Z,6.67
2023-01-02T05:45:45.275Z,6.00
2023-01-02T05:48:13.256Z,6.60
2023-01-02T05:50:41.268Z,6.33
2023-01-02T05:53:11.339Z,6.43
2023-01-02T05:55:39.457Z,5.77
2023-01-02T05:58:07.448Z,6.10
2023-01-02T06:00:37.224Z,6.40
2023-01-02T06:03:05.384Z,6.27
2023-01-02T06:05:33.494Z,6.40
2023-01-02T06:08:01.496Z,6.07
2023-01-02T06:10:29.672Z,5.83
2023-01-02T06:12:57.972Z,6.13
2023-01-02T06:15:25.987Z,6.87
2023-01-02T06:17:55.313Z,6.80
2023-01-02T06:20:23.295Z,6.47
2023-01-02T06:22:51.279Z,7.43
2023-01-02T06:25:19.313Z,6.87
2023-01-02T06:27:47.305Z,6.90
2023-01-02T06:30:15.541Z,7.60
2023-01-02T06:32:43.563Z,7.43
2023-01-02T06:35:12.918Z,7.67
2023-01-02T06:37:44.948Z,8.27
2023-01-02T06:40:13.120Z,7.87
2023-01-02T06:42:41.144Z,7.43
2023-01-02T06:45:09.628Z,8.27
2023-01-02T06:47:37.756Z,7.97
2023-01-02T06:50:06.828Z,7.87
2023-01-02T06:52:36.282Z,7.47
2023-01-02T06:55:04.466Z,8.33
2023-01-02T06:57:32.648Z,7.23
2023-01-02T07:00:00.677Z,8.43
2023-01-02T07:02:28.727Z,9.13
2023-01-02T07:04:57.391Z,7.20
2023-01-02T07:07:25.387Z,7.27
2023-01-02T07:09:54.747Z,7.80
2023-01-02T07:12:22.715Z,8.50
2023-01-02T07:14:50.711Z,8.13
2023-01-02T07:17:18.708Z,8.03
2023-01-02T07:19:53.087Z,7.77
2023-01-02T07:22:21.902Z,8.13
2023-01-02T07:24:49.951Z,8.10
2023-01-02T07:27:19.537Z,7.77
2023-01-02T07:29:47.563Z,8.20
2023-01-02T07:32:15.577Z,8.40
2023-01-02T07:34:43.568Z,7.67
2023-01-02T07:37:11.588Z,8.07
2023-01-02T07:39:39.621Z,7.73
2023-01-02T07:42:07.930Z,8.73
2023-01-02T07:44:37.293Z,8.03
2023-01-02T07:47:05.323Z,8.23
2023-01-02T07:49:33.307Z,8.07
2023-01-02T07:52:01.307Z,8.27
2023-01-02T07:54:29.319Z,8.47
2023-01-02T07:56:57.340Z,8.67
2023-01-02T07:59:25.317Z,8.07
2023-01-02T08:01:54.735Z,8.90
2023-01-02T08:04:22.878Z,7.40
2023-01-02T08:06:50.914Z,7.40
2023-01-02T08:09:19.052Z,7.30
2023-01-02T08:11:47.059Z,7.83
2023-01-02T08:14:21.555Z,7.63
2023-01-02T08:16:51.409Z,7.73
2023-01-02T08:19:20.816Z,7.70
2023-01-02T08:21:48.798Z,8.27
2023-01-02T08:24:16.836Z,7.93
2023-01-02T08:26:44.818Z,8.27
2023-01-02T08:29:12.899Z,8.00
2023-01-02T08:31:43.837Z,7.57
2023-01-02T08:34:14.572Z,7.97
2023-01-02T08:36:44.934Z,8.50
2023-01-02T08:39:12.974Z,8.23
2023-01-02T08:41:42.228Z,8.47
2023-01-02T08:44:10.245Z,7.63
2023-01-02T08:46:42.912Z,7.80
2023-01-02T08:49:12.224Z,7.73
2023-01-02T08:51:40.362Z,7.73
2023-01-02T08:54:09.758Z,7.73
2023-01-02T08:56:38.234Z,8.17
2023-01-02T08:59:08.827Z,8.13
2023-01-02T09:01:37.794Z,7.93
2023-01-02T09:04:12.087Z,8.57
2023-01-02T09:06:42.178Z,8.90
2023-01-02T09:09:13.109Z,7.87
2023-01-02T09:11:45.585Z,8.23
2023-01-02T09:14:13.583Z,7.83
2023-01-02T09:16:41.590Z,7.60
2023-01-02T09:19:09.586Z,8.60
2023-01-02T09:21:37.599Z,8.07
2023-01-02T09:24:06.393Z,8.37
2023-01-02T09:26:37.944Z,8.17
2023-01-02T09:29:06.216Z,7.50
2023-01-02T09:31:34.257Z,7.43
2023-01-02T09:34:02.613Z,7.27
2023-01-02T09:36:31.427Z,7.37
2023-01-02T09:39:01.300Z,7.77
2023-01-02T09:41:34.175Z,7.23
2023-01-02T09:44:11.166Z,7.20
2023-01-02T09:46:45.970Z,7.77
2023-01-02T09:49:17.970Z,6.80
2023-01-02T09:51:46.940Z,6.57
2023-01-02T09:54:25.801Z,6.67
2023-01-02T09:57:06.281Z,6.17
2023-01-02T09:59:44.236Z,6.30
2023-01-02T10:02:21.475Z,6.37
2023-01-02T10:05:16.634Z,6.17
2023-01-02T10:07:51.481Z,5.60
2023-01-02T10:10:27.473Z,5.90
2023-01-02T10:13:02.297Z,5.87
2023-01-02T10:15:32.786Z,5.33
2023-01-02T10:18:06.603Z,5.40
2023-01-02T10:20:39.992Z,5.40
2023-01-02T10:23:12.902Z,5.50
2023-01-02T10:25:49.439Z,5.03
2023-01-02T10:28:29.341Z,4.80
2023-01-02T10:31:07.182Z,4.80
2023-01-02T10:33:45.226Z,4.43
2023-01-02T10:36:24.067Z,4.70
2023-01-02T10:38:52.838Z,4.50
2023-01-02T10:41:20.896Z,4.10
2023-01-02T10:43:55.028Z,4.23
2023-01-02T10:46:24.485Z,4.20
2023-01-02T10:48:52.583Z,3.60
2023-01-02T10:51:22.062Z,2.80
2023-01-02T10:54:01.507Z,2.63
2023-01-02T10:56:32.080Z,2.37
2023-01-02T10:59:01.141Z,2.10
2023-01-02T11:01:31.377Z,1.50
2023-01-02T11:04:13.978Z,1.50
2023-01-02T11:06:53.691Z,1.50
2023-01-02T11:09:24.066Z,1.60
2023-01-02T11:11:54.170Z,1.23
2023-01-02T11:14:29.751Z,1.43
2023-01-02T11:17:07.885Z,1.50
2023-01-02T11:19:42.160Z,1.30
2023-01-02T11:22:11.281Z,0.90
2023-01-02T11:24:59.551Z,1.10
2023-01-02T11:27:31.606Z,0.90
2023-01-02T11:30:00.850Z,0.90
2023-01-02T11:32:38.441Z,0.90
2023-01-02T11:35:27.797Z,1.10
2023-01-02T11:37:56.334Z,0.90
2023-01-02T11:40:27.715Z,0.83
2023-01-02T11:43:16.826Z,0.83
2023-01-02T11:45:45.665Z,1.10
2023-01-02T11:48:20.953Z,0.90
2023-01-02T11:50:51.023Z,1.07
2023-01-02T11:53:22.527Z,1.27
2023-01-02T11:55:54.823Z,1.30
2023-01-02T11:58:32.071Z,1.00
2023-01-02T12:01:05.947Z,1.07
2023-01-02T12:03:35.437Z,1.20
2023-01-02T12:06:13.130Z,1.30
2023-01-02T12:08:53.187Z,1.40
2023-01-02T12:11:32.470Z,1.40
2023-01-02T12:14:10.068Z,1.67
2023-01-02T12:16:46.144Z,1.50
2023-01-02T12:19:48.943Z,1.60
2023-01-02T12:22:31.705Z,1.63
2023-01-02T12:25:17.117Z,1.67
2023-01-02T12:27:53.594Z,1.60
2023-01-02T12:30:22.682Z,2.23
2023-01-02T12:33:10.425Z,2.53
2023-01-02T12:36:05.107Z,2.00
2023-01-02T12:38:48.828Z,1.83
2023-01-02T12:41:27.571Z,2.30
2023-01-02T12:44:12.102Z,2.60
2023-01-02T12:47:07.255Z,1.97
2023-01-02T12:49:57.049Z,2.10
2023-01-02T12:52:39.555Z,1.87
2023-01-02T12:55:23.555Z,1.50
2023-01-02T12:57:59.152Z,1.73
2023-01-02T13:00:56.179Z,1.30
2023-01-02T13:03:43.910Z,1.33
2023-01-02T13:06:45.591Z,1.43
2023-01-02T13:09:11.047Z,1.33
2023-01-02T13:11:44.660Z,1.40
2023-01-02T13:14:18.047Z,1.40
2023-01-02T13:16:51.794Z,1.53
2023-01-02T13:19:27.092Z,1.20
2023-01-02T13:22:03.583Z,1.50
2023-01-02T13:24:33.397Z,1.60
2023-01-02T13:27:01.687Z,1.30
2023-01-02T13:29:40.517Z,1.30
2023-01-02T13:32:10.399Z,1.20
2023-01-02T13:34:47.564Z,1.07
2023-01-02T13:37:19.765Z,0.90
2023-01-02T13:39:51.527Z,0.90
2023-01-02T13:42:43.680Z,1.20
2023-01-02T13:45:18.592Z,0.93
2023-01-02T13:47:51.913Z,1.30
2023-01-02T13:50:27.085Z,0.97
2023-01-02T13:53:04.759Z,0.90
2023-01-02T13:55:36.134Z,0.93
2023-01-02T13:58:37.595Z,1.10
2023-01-02T14:01:41.788Z,0.93
2023-01-02T14:04:36.467Z,0.80
2023-01-02T14:07:40.146Z,0.90
2023-01-02T14:10:27.998Z,0.97
2023-01-02T14:13:01.685Z,1.00
2023-01-02T14:15:30.429Z,1.07
2023-01-02T14:18:04.824Z,1.50
2023-01-02T14:20:35.392Z,1.00
2023-01-02T14:23:05.511Z,1.33
2023-01-02T14:25:45.392Z,1.37
2023-01-02T14:28:22.950Z,1.10
2023-01-02T14:30:51.519Z,1.40
2023-01-02T14:33:27.130Z,1.40
2023-01-02T14:35:58.593Z,1.20
2023-01-02T14:38:29.684Z,1.40
2023-01-02T14:41:19.091Z,1.20
2023-01-02T14:43:48.970Z,1.20
2023-01-02T14:46:20.857Z,1.37
2023-01-02T14:48:58.629Z,1.30
2023-01-02T14:51:35.332Z,1.27
2023-01-02T14:54:13.679Z,1.40
2023-01-02T14:56:44.728Z,1.20
2023-01-02T14:59:27.627Z,1.23
2023-01-02T15:02:01.283Z,1.40
2023-01-02T15:04:39.039Z,1.30
2023-01-02T15:07:15.094Z,1.50
2023-01-02T15:09:47.428Z,1.33
2023-01-02T15:12:42.178Z,1.58
2023-01-02T15:15:15.796Z,1.30
2023-01-02T15:17:47.765Z,1.50
2023-01-02T15:20:21.810Z,1.50
2023-01-02T15:22:53.477Z,1.80
2023-01-02T15:25:33.222Z,1.63
2023-01-02T15:28:03.074Z,1.30
2023-01-02T15:30:38.196Z,1.60
2023-01-02T15:33:06.800Z,1.63
2023-01-02T15:35:36.270Z,1.83
2023-01-02T15:38:05.632Z,1.67
2023-01-02T15:40:36.173Z,1.73
2023-01-02T15:43:25.936Z,1.50
2023-01-02T15:45:55.431Z,1.30
2023-01-02T15:48:27.461Z,1.60
2023-01-02T15:50:57.000Z,1.47
2023-01-02T15:53:28.684Z,1.60
2023-01-02T15:55:57.113Z,2.00
2023-01-02T15:58:28.683Z,1.90
2023-01-02T16:01:19.098Z,2.17
2023-01-02T16:04:02.675Z,2.00
2023-01-02T16:06:35.596Z,1.83
2023-01-02T16:09:05.419Z,2.10
2023-01-02T16:11:43.124Z,2.57
2023-01-02T16:14:21.892Z,2.50
2023-01-02T16:16:56.977Z,3.53
2023-01-02T16:19:31.851Z,3.93
2023-01-02T16:22:06.684Z,3.03
2023-01-02T16:24:36.534Z,2.40
2023-01-02T16:27:06.072Z,2.17
2023-01-02T16:29:34.111Z,2.27
2023-01-02T16:32:03.822Z,2.00
2023-01-02T16:34:36.675Z,2.17
2023-01-02T16:37:32.154Z,2.00
2023-01-02T16:41:00.037Z,3.20
2023-01-02T16:43:18.680Z,3.10
2023-01-02T16:45:48.792Z,3.47
2023-01-02T16:48:21.351Z,3.03
2023-01-02T16:50:51.692Z,2.77
2023-01-02T16:53:23.641Z,2.37
2023-01-02T16:55:52.072Z,3.40
2023-01-02T16:58:20.143Z,3.10
2023-01-02T17:00:49.786Z,2.93
2023-01-02T17:03:20.736Z,3.00
2023-01-02T17:06:01.965Z,2.50
2023-01-02T17:08:32.045Z,2.63
2023-01-02T17:11:00.463Z,2.80
2023-01-02T17:13:29.676Z,3.03
2023-01-02T17:15:58.249Z,2.80
2023-01-02T17:18:27.735Z,2.70
2023-01-02T17:20:55.734Z,2.90
2023-01-02T17:23:23.735Z,2.67
2023-01-02T17:25:51.721Z,2.50
2023-01-02T17:28:19.852Z,2.50
2023-01-02T17:30:49.940Z,2.63
2023-01-02T17:33:18.487Z,2.70
2023-01-02T17:35:48.910Z,2.80
2023-01-02T17:38:17.624Z,2.50
2023-01-02T17:40:45.728Z,2.83
2023-01-02T17:43:13.771Z,2.70
2023-01-02T17:45:42.816Z,2.80
2023-01-02T17:48:13.585Z,3.03
2023-01-02T17:50:43.272Z,3.40
2023-01-02T17:53:12.796Z,4.00
2023-01-02T17:55:40.819Z,3.27
2023-01-02T17:58:08.912Z,3.20
2023-01-02T18:00:36.946Z,3.70
2023-01-02T18:03:05.155Z,3.50
2023-01-02T18:05:36.538Z,3.23
2023-01-02T18:08:04.872Z,3.43
2023-01-02T18:10:36.472Z,3.20
2023-01-02T18:13:06.276Z,4.00
2023-01-02T18:15:34.338Z,4.50
2023-01-02T18:18:09.406Z,4.27
2023-01-02T18:20:40.791Z,3.60
2023-01-02T18:23:13.526Z,4.37
2023-01-02T18:25:43.141Z,4.03
2023-01-02T18:28:21.795Z,4.20
2023-01-02T18:30:52.505Z,4.30
2023-01-02T18:33:21.148Z,3.90
2023-01-02T18:35:59.482Z,4.37
2023-01-02T18:38:32.116Z,4.47
2023-01-02T18:41:03.163Z,5.33
2023-01-02T18:43:35.602Z,4.80
2023-01-02T18:46:18.066Z,5.03
2023-01-02T18:48:46.424Z,4.87
2023-01-02T18:51:18.578Z,5.00
2023-01-02T18:53:49.656Z,5.30
2023-01-02T18:56:20.771Z,5.20
2023-01-02T18:59:01.441Z,5.40
2023-01-02T19:01:31.658Z,6.37
2023-01-02T19:04:26.850Z,6.50
2023-01-02T19:06:57.161Z,6.10
2023-01-02T19:09:30.243Z,5.57
2023-01-02T19:12:24.963Z,5.67
2023-01-02T19:14:54.406Z,5.30
2023-01-02T19:17:25.043Z,4.67
2023-01-02T19:19:53.316Z,4.37
2023-01-02T19:22:24.708Z,4.20
2023-01-02T19:24:53.045Z,4.23
2023-01-02T19:27:26.170Z,3.97
2023-01-02T19:29:54.857Z,3.70
2023-01-02T19:32:29.129Z,4.30
2023-01-02T19:34:59.682Z,4.33
2023-01-02T19:37:46.744Z,4.60
2023-01-02T19:40:19.762Z,4.07
2023-01-02T19:42:50.103Z,3.90
2023-01-02T19:45:20.307Z,3.80
2023-01-02T19:47:49.487Z,3.40
2023-01-02T19:50:20.502Z,3.77
2023-01-02T19:52:48.565Z,4.03
2023-01-02T19:55:18.586Z,3.57
2023-01-02T19:57:47.493Z,3.60
2023-01-02T20:00:19.246Z,4.03
2023-01-02T20:02:49.003Z,4.00
2023-01-02T20:05:21.458Z,4.20
2023-01-02T20:07:51.016Z,4.13
2023-01-02T20:10:19.281Z,4.37
2023-01-02T20:12:47.308Z,3.53
2023-01-02T20:15:18.659Z,3.67
2023-01-02T20:17:47.143Z,4.30
2023-01-02T20:20:18.260Z,3.70
2023-01-02T20:22:46.836Z,3.67
2023-01-02T20:25:17.343Z,3.47
2023-01-02T20:27:45.485Z,3.43
2023-01-02T20:30:20.321Z,3.70
2023-01-02T20:32:51.924Z,3.87
2023-01-02T20:35:20.040Z,3.67
2023-01-02T20:37:48.576Z,4.40
2023-01-02T20:40:16.769Z,4.30
2023-01-02T20:42:44.795Z,4.60
2023-01-02T20:45:13.229Z,4.30
2023-01-02T20:47:43.029Z,4.80
2023-01-02T20:50:12.016Z,5.03
2023-01-02T20:52:40.060Z,3.93
2023-01-02T20:55:09.674Z,4.43
2023-01-02T20:57:38.819Z,4.50
2023-01-02T21:00:10.900Z,4.50
2023-01-02T21:02:39.193Z,4.13
2023-01-02T21:05:09.478Z,4.57
2023-01-02T21:07:38.620Z,3.87
2023-01-02T21:10:07.680Z,4.27
2023-01-02T21:12:49.627Z,4.00
2023-01-02T21:15:31.714Z,4.10
2023-01-02T21:17:59.803Z,4.13
2023-01-02T21:20:29.193Z,4.40
2023-01-02T21:22:57.179Z,3.73
2023-01-02T21:25:25.255Z,4.07
2023-01-02T21:27:53.250Z,3.70
2023-01-02T21:30:21.290Z,4.13
2023-01-02T21:32:49.292Z,4.07
2023-01-02T21:35:17.394Z,4.00
2023-01-02T21:37:46.822Z,4.07
2023-01-02T21:40:14.874Z,4.70
2023-01-02T21:42:45.110Z,4.43
2023-01-02T21:45:13.602Z,4.53
2023-01-02T21:47:41.696Z,3.77
2023-01-02T21:50:10.378Z,3.90
2023-01-02T21:52:38.561Z,4.23
2023-01-02T21:55:08.954Z,4.20
2023-01-02T21:58:11.518Z,4.07
2023-01-02T22:00:27.951Z,3.90
2023-01-02T22:02:56.586Z,3.30
2023-01-02T22:05:24.704Z,3.13
2023-01-02T22:07:52.704Z,3.23
2023-01-02T22:10:22.133Z,3.03
2023-01-02T22:12:50.153Z,3.90
2023-01-02T22:15:18.217Z,2.97
2023-01-02T22:17:46.232Z,2.60
2023-01-02T22:20:14.236Z,2.80
2023-01-02T22:22:42.348Z,2.57
2023-01-02T22:25:10.905Z,3.00
2023-01-02T22:27:40.463Z,2.90
2023-01-02T22:30:33.633Z,2.80
2023-01-02T22:32:58.431Z,2.90
2023-01-02T22:35:26.488Z,2.50
2023-01-02T22:37:54.520Z,3.10
2023-01-02T22:40:22.583Z,2.73
2023-01-02T22:43:06.062Z,2.30
2023-01-02T22:45:42.593Z,2.70
2023-01-02T22:48:17.948Z,2.23
2023-01-02T22:50:47.817Z,2.33
2023-01-02T22:53:22.418Z,2.20
2023-01-02T22:55:50.678Z,2.27
2023-01-02T22:58:20.686Z,2.20
2023-01-02T23:00:52.841Z,2.00
2023-01-02T23:03:20.927Z,2.90
2023-01-02T23:05:48.938Z,2.70
2023-01-02T23:08:16.942Z,2.30
2023-01-02T23:10:45.044Z,2.10
2023-01-02T23:13:13.122Z,2.70
2023-01-02T23:15:56.491Z,1.90
2023-01-02T23:18:42.885Z,2.10
2023-01-02T23:21:11.183Z,2.37
2023-01-02T23:23:39.173Z,2.00
2023-01-02T23:26:08.037Z,2.00
2023-01-02T23:29:06.164Z,2.10
2023-01-02T23:31:25.933Z,1.47
2023-01-02T23:33:53.954Z,2.30
2023-01-02T23:36:22.030Z,2.17
2023-01-02T23:38:50.004Z,1.70
2023-01-02T23:41:17.991Z,1.87
2023-01-02T23:43:45.973Z,1.80
2023-01-02T23:46:14.100Z,2.33
2023-01-02T23:48:43.480Z,1.97
2023-01-02T23:51:11.523Z,2.23
2023-01-02T23:53:39.544Z,1.80
2023-01-02T23:56:18.266Z,3.30
2023-01-02T23:58:46.391Z,2.00
